Time;durP1;ratioP1;P1;durP2;ratioP2;P2;SDS_P1;SDS_P2;PMS_P1;PMS_P2;Temp;Humidity;BMP_temperature;BMP_pressure;BME280_temperature;BME280_humidity;BME280_pressure;Samples;Min_cycle;Max_cycle;Signal;HPM_P1;HPM_P2
2021/11/13 00:01:17;;;;;;;9.67;6.43;;;4.20;99.90;4.10;96817.00;;;;5044400;28;20225;-73
2021/11/13 00:04:05;;;;;;;8.60;6.13;;;4.20;99.90;4.10;96811.00;;;;5045695;28;20339;-73
2021/11/13 00:06:56;;;;;;;6.83;5.60;;;4.20;99.90;4.10;96810.00;;;;5032105;28;20196;-73
2021/11/13 00:09:44;;;;;;;9.00;6.33;;;4.20;99.90;4.10;96810.00;;;;5043645;28;20200;-73
2021/11/13 00:12:33;;;;;;;9.37;6.27;;;4.20;99.90;4.10;96813.00;;;;5042356;28;20272;-73
2021/11/13 00:15:24;;;;;;;7.03;5.83;;;4.20;99.90;4.20;96820.00;;;;5045469;28;20200;-73
2021/11/13 00:18:15;;;;;;;7.67;5.50;;;4.30;99.90;4.20;96818.00;;;;5044270;28;20201;-73
2021/11/13 00:21:05;;;;;;;9.60;5.73;;;4.30;99.90;4.20;96816.00;;;;5045706;28;20405;-73
2021/11/13 00:23:55;;;;;;;7.70;5.73;;;4.30;99.90;4.10;96808.00;;;;5045511;28;20670;-73
2021/11/13 00:26:44;;;;;;;8.83;5.93;;;4.30;99.90;4.20;96814.00;;;;5044914;28;20215;-73
2021/11/13 00:29:33;;;;;;;6.90;5.33;;;4.30;99.90;4.20;96817.00;;;;5045150;28;20208;-73
2021/11/13 00:32:22;;;;;;;10.13;6.20;;;4.30;99.90;4.30;96815.00;;;;5046623;28;20232;-74
2021/11/13 00:35:11;;;;;;;7.03;5.17;;;4.30;99.90;4.20;96805.00;;;;5043898;28;20209;-73
2021/11/13 00:38:00;;;;;;;7.03;4.93;;;4.30;99.90;4.30;96803.00;;;;5034924;28;20201;-74
2021/11/13 00:40:50;;;;;;;9.60;5.83;;;4.40;99.90;4.30;96810.00;;;;5028865;28;20214;-73
2021/11/13 00:43:39;;;;;;;6.17;4.80;;;4.40;99.90;4.30;96808.00;;;;5032717;28;20612;-73
2021/11/13 00:46:28;;;;;;;6.30;4.60;;;4.30;99.90;4.30;96800.00;;;;5042989;28;20209;-73
2021/11/13 00:49:17;;;;;;;6.97;4.53;;;4.40;99.90;4.30;96797.00;;;;5044979;28;20679;-73
2021/11/13 00:52:07;;;;;;;9.60;5.13;;;4.40;99.90;4.30;96796.00;;;;5045291;28;20224;-73
2021/11/13 00:54:56;;;;;;;7.70;5.10;;;5.30;99.90;4.30;96787.00;;;;5045392;28;20582;-73
2021/11/13 00:57:47;;;;;;;8.53;5.33;;;4.40;99.90;4.20;96792.00;;;;5044362;28;20207;-73
2021/11/13 01:00:36;;;;;;;6.63;4.80;;;4.40;99.90;4.20;96791.00;;;;5044268;28;20216;-73
2021/11/13 01:03:26;;;;;;;5.87;4.83;;;4.40;99.90;4.20;96782.00;;;;5043508;28;20228;-73
2021/11/13 01:06:15;;;;;;;5.93;5.27;;;4.40;99.90;4.20;96781.00;;;;5043249;28;20196;-72
2021/11/13 01:09:04;;;;;;;6.00;5.07;;;4.40;99.90;4.30;96767.00;;;;5045000;28;20573;-73
2021/11/13 01:11:53;;;;;;;6.63;5.00;;;4.40;99.90;4.30;96768.00;;;;5041983;28;20220;-73
2021/11/13 01:14:43;;;;;;;6.80;4.83;;;4.30;99.90;4.30;96757.00;;;;5045078;28;20209;-73
2021/11/13 01:17:32;;;;;;;6.20;4.20;;;4.40;99.90;4.20;96761.00;;;;5044167;28;20197;-73
2021/11/13 01:20:24;;;;;;;6.77;5.27;;;4.30;99.90;4.20;96759.00;;;;5044116;28;20207;-73
2021/11/13 01:23:13;;;;;;;8.73;5.53;;;4.30;99.90;4.20;96759.00;;;;5043178;28;20243;-73
2021/11/13 01:26:02;;;;;;;6.57;4.87;;;4.30;99.90;4.20;96764.00;;;;5043824;28;20208;-73
2021/11/13 01:28:52;;;;;;;5.37;4.77;;;4.30;99.90;4.20;96746.00;;;;5043709;28;20200;-73
2021/11/13 01:31:42;;;;;;;7.27;4.63;;;4.30;99.90;4.20;96754.00;;;;5045064;28;20239;-73
2021/11/13 01:34:31;;;;;;;7.47;5.13;;;4.30;99.90;4.20;96734.00;;;;5043680;28;20197;-73
2021/11/13 01:37:20;;;;;;;6.53;5.10;;;4.30;99.90;4.20;96730.00;;;;5040929;28;20197;-73
2021/11/13 01:40:13;;;;;;;6.00;5.00;;;4.30;99.90;4.20;96728.00;;;;5032967;28;20194;-73
2021/11/13 01:43:02;;;;;;;8.53;5.30;;;4.30;99.90;4.20;96726.00;;;;5035487;28;20228;-73
2021/11/13 01:45:51;;;;;;;8.30;4.93;;;4.30;99.90;4.20;96714.00;;;;5043102;28;20201;-72
2021/11/13 01:48:41;;;;;;;8.57;5.63;;;4.30;99.90;4.20;96705.00;;;;5036453;28;20208;-73
2021/11/13 01:51:32;;;;;;;7.17;5.07;;;3.40;99.90;4.20;96702.00;;;;5044545;28;20225;-73
2021/11/13 01:54:22;;;;;;;9.30;5.33;;;4.30;99.90;4.10;96697.00;;;;5044964;28;20213;-73
2021/11/13 01:57:20;;;;;;;8.20;5.50;;;4.30;99.90;4.00;96689.00;;;;5045690;28;20235;-73
2021/11/13 02:00:11;;;;;;;8.07;5.30;;;4.30;99.90;4.00;96697.00;;;;5048534;28;20204;-73
2021/11/13 02:03:01;;;;;;;6.53;4.70;;;4.30;99.90;4.00;96692.00;;;;5047609;28;20602;-73
2021/11/13 02:05:52;;;;;;;6.10;4.77;;;4.30;99.90;4.00;96689.00;;;;5048610;28;20201;-72
2021/11/13 02:08:42;;;;;;;7.23;5.27;;;4.20;99.90;4.10;96688.00;;;;5044885;28;20209;-73
2021/11/13 02:11:31;;;;;;;7.77;4.90;;;4.20;99.90;4.10;96685.00;;;;5045986;28;20617;-73
2021/11/13 02:14:20;;;;;;;9.27;6.23;;;4.30;99.90;4.20;96689.00;;;;5049092;28;20192;-72
2021/11/13 02:17:09;;;;;;;5.47;4.73;;;4.20;99.90;4.20;96682.00;;;;5048038;28;20205;-73
2021/11/13 02:20:21;;;;;;;9.50;6.20;;;4.30;99.90;4.20;96680.00;;;;5047356;28;20205;-72
2021/11/13 02:23:14;;;;;;;13.50;6.50;;;4.30;99.90;4.10;96683.00;;;;5047887;28;20224;-73
2021/11/13 02:26:04;;;;;;;9.13;6.47;;;4.30;99.90;4.10;96685.00;;;;5046739;28;20209;-73
2021/11/13 02:28:55;;;;;;;10.27;6.23;;;4.30;99.90;4.10;96683.00;;;;5046865;28;20671;-73
2021/11/13 02:31:46;;;;;;;7.07;6.00;;;4.20;99.90;4.20;96679.00;;;;5040520;28;20535;-73
2021/11/13 02:34:35;;;;;;;8.33;5.63;;;4.20;99.90;4.20;96687.00;;;;5048035;28;20208;-73
2021/11/13 02:37:29;;;;;;;9.27;5.60;;;4.30;99.90;4.20;96671.00;;;;5047324;28;20205;-72
2021/11/13 02:40:19;;;;;;;8.33;5.37;;;4.30;99.90;4.20;96671.00;;;;5047494;28;20204;-73
2021/11/13 02:43:08;;;;;;;11.83;5.93;;;4.30;99.90;4.20;96676.00;;;;5047951;28;20211;-72
2021/11/13 02:45:59;;;;;;;8.43;6.47;;;4.30;99.90;4.20;96678.00;;;;5048033;28;20201;-73
2021/11/13 02:48:50;;;;;;;8.47;5.53;;;4.30;99.90;4.20;96682.00;;;;5046640;28;20216;-73
2021/11/13 02:51:39;;;;;;;10.37;5.43;;;4.30;99.90;4.10;96675.00;;;;5039756;28;20228;-73
2021/11/13 02:54:29;;;;;;;7.43;4.70;;;4.30;99.90;4.20;96682.00;;;;5046911;28;20216;-73
2021/11/13 02:57:18;;;;;;;7.10;5.27;;;4.30;99.90;4.20;96681.00;;;;5046326;28;20208;-73
2021/11/13 03:00:10;;;;;;;8.73;5.60;;;4.30;99.90;4.20;96672.00;;;;5047487;28;20207;-73
2021/11/13 03:02:59;;;;;;;8.73;6.63;;;4.30;99.90;4.20;96671.00;;;;5046762;28;20200;-73
2021/11/13 03:05:52;;;;;;;8.63;6.37;;;4.30;99.90;4.20;96677.00;;;;5046449;28;20208;-73
2021/11/13 03:08:43;;;;;;;7.33;5.63;;;4.30;99.90;4.20;96670.00;;;;5046010;28;20212;-73
2021/11/13 03:11:33;;;;;;;8.57;5.83;;;4.30;99.90;4.20;96672.00;;;;5046098;28;20220;-72
2021/11/13 03:14:22;;;;;;;7.17;5.90;;;4.30;99.90;4.20;96670.00;;;;5047105;28;20208;-73
2021/11/13 03:17:12;;;;;;;13.00;7.73;;;4.30;99.90;4.20;96677.00;;;;5046283;28;20304;-73
2021/11/13 03:20:00;;;;;;;11.50;8.03;;;4.30;99.90;4.20;96680.00;;;;5047165;28;20593;-73
2021/11/13 03:22:50;;;;;;;10.97;6.73;;;4.30;99.90;4.10;96679.00;;;;5044647;28;20203;-72
2021/11/13 03:25:47;;;;;;;13.37;7.70;;;4.30;99.90;4.10;96666.00;;;;5037891;28;20212;-73
2021/11/13 03:28:41;;;;;;;10.53;7.43;;;4.30;99.90;4.20;96675.00;;;;5046564;28;20196;-73
2021/11/13 03:31:30;;;;;;;10.53;7.33;;;4.30;99.90;4.20;96669.00;;;;5046364;28;20224;-73
2021/11/13 03:34:19;;;;;;;11.83;8.07;;;4.30;99.90;4.10;96676.00;;;;5046133;28;20208;-72
2021/11/13 03:37:07;;;;;;;15.93;8.93;;;4.30;99.90;4.10;96672.00;;;;5046367;28;20200;-73
2021/11/13 03:39:56;;;;;;;14.63;8.20;;;4.30;99.90;4.10;96675.00;;;;5044720;28;20209;-73
2021/11/13 03:42:45;;;;;;;11.00;6.70;;;4.20;99.90;4.10;96673.00;;;;5033148;28;20196;-73
2021/11/13 03:45:37;;;;;;;11.53;7.50;;;4.20;99.90;4.10;96659.00;;;;5042950;28;20228;-73
2021/11/13 03:48:26;;;;;;;13.30;8.50;;;4.20;99.90;4.00;96663.00;;;;5045927;28;20718;-72
2021/11/13 03:51:15;;;;;;;23.03;10.27;;;4.20;99.90;4.00;96664.00;;;;5045086;28;20221;-73
2021/11/13 03:54:04;;;;;;;20.63;9.50;;;4.20;99.90;4.00;96681.00;;;;5045311;28;20196;-73
2021/11/13 03:56:53;;;;;;;20.33;9.53;;;4.20;99.90;3.90;96669.00;;;;5044679;28;20224;-73
2021/11/13 03:59:42;;;;;;;13.93;8.20;;;4.20;99.90;3.90;96670.00;;;;5044969;28;20246;-73
2021/11/13 04:02:32;;;;;;;14.40;8.20;;;4.10;99.90;3.90;96670.00;;;;5045563;28;20746;-72
2021/11/13 04:05:22;;;;;;;13.43;7.87;;;4.10;99.90;3.80;96677.00;;;;5045638;28;20231;-73
2021/11/13 04:08:11;;;;;;;12.50;7.30;;;4.10;99.90;3.60;96670.00;;;;5038216;28;20207;-73
2021/11/13 04:11:00;;;;;;;11.73;7.07;;;4.10;99.90;3.60;96677.00;;;;5036418;28;20227;-73
2021/11/13 04:13:49;;;;;;;11.87;7.03;;;4.00;99.90;3.60;96683.00;;;;5035727;28;20208;-73
2021/11/13 04:16:38;;;;;;;12.37;6.33;;;4.00;99.90;3.60;96676.00;;;;5045030;28;20209;-73
2021/11/13 04:19:29;;;;;;;10.07;6.37;;;3.90;99.90;3.50;96683.00;;;;5044162;28;20204;-73
2021/11/13 04:22:18;;;;;;;8.67;5.83;;;3.90;99.90;3.60;96684.00;;;;5044431;28;20227;-73
2021/11/13 04:25:08;;;;;;;9.23;5.63;;;3.90;99.90;3.60;96684.00;;;;5045679;28;20463;-73
2021/11/13 04:27:57;;;;;;;10.17;6.93;;;3.80;99.90;3.70;96685.00;;;;5045031;28;21008;-73
2021/11/13 04:30:47;;;;;;;12.50;6.83;;;3.90;99.90;3.70;96684.00;;;;5043726;28;20235;-73
2021/11/13 04:33:36;;;;;;;9.73;7.03;;;3.90;99.90;3.80;96693.00;;;;5044801;28;20215;-73
2021/11/13 04:36:29;;;;;;;12.07;6.93;;;3.90;99.90;3.80;96689.00;;;;5044896;28;20804;-73
2021/11/13 04:39:18;;;;;;;10.10;6.33;;;3.90;99.90;3.80;96695.00;;;;5044584;28;20585;-73
2021/11/13 04:42:07;;;;;;;12.33;6.77;;;3.90;99.90;3.80;96691.00;;;;5030271;28;20228;-73
2021/11/13 04:44:56;;;;;;;9.30;6.67;;;3.90;99.90;3.80;96695.00;;;;5045070;28;20649;-73
2021/11/13 04:47:45;;;;;;;13.20;6.20;;;3.90;99.90;3.80;96690.00;;;;5032518;28;20803;-73
2021/11/13 04:50:36;;;;;;;10.50;7.13;;;3.90;99.90;3.80;96687.00;;;;5045481;28;20201;-73
2021/11/13 04:53:27;;;;;;;11.27;7.47;;;3.90;99.90;3.80;96702.00;;;;5045855;28;20201;-74
2021/11/13 04:56:15;;;;;;;10.73;6.97;;;3.90;99.90;3.80;96693.00;;;;5045464;28;20200;-75
2021/11/13 04:59:04;;;;;;;10.23;6.30;;;3.90;99.90;3.90;96688.00;;;;5043705;28;20196;-75
2021/11/13 05:01:54;;;;;;;7.90;6.13;;;3.90;99.90;3.90;96686.00;;;;5045150;28;20714;-75
2021/11/13 05:04:42;;;;;;;9.23;6.00;;;4.00;99.90;3.90;96689.00;;;;5037689;28;20224;-75
2021/11/13 05:07:32;;;;;;;8.60;5.77;;;4.00;99.90;3.90;96685.00;;;;5036681;28;20201;-75
2021/11/13 05:10:23;;;;;;;9.40;5.57;;;4.00;99.90;3.90;96696.00;;;;5045095;28;20200;-75
2021/11/13 05:13:12;;;;;;;7.90;5.40;;;4.00;99.90;3.90;96704.00;;;;5043029;28;20223;-75
2021/11/13 05:16:01;;;;;;;8.23;5.43;;;4.00;99.90;3.90;96707.00;;;;5043371;28;20201;-75
2021/11/13 05:18:49;;;;;;;9.47;5.43;;;4.00;99.90;3.90;96703.00;;;;5044957;28;20207;-75
2021/11/13 05:21:39;;;;;;;9.73;4.97;;;4.00;99.90;3.90;96714.00;;;;5045228;28;20216;-74
2021/11/13 05:24:27;;;;;;;7.50;5.20;;;4.00;99.90;3.90;96703.00;;;;5044415;28;20205;-75
2021/11/13 05:27:18;;;;;;;9.07;4.40;;;3.90;99.90;3.90;96712.00;;;;5042678;28;20197;-75
2021/11/13 05:30:10;;;;;;;8.60;5.53;;;4.00;99.90;3.80;96709.00;;;;5045055;28;20197;-75
2021/11/13 05:32:59;;;;;;;8.03;5.50;;;4.00;99.90;3.80;96697.00;;;;5047996;28;20278;-75
2021/11/13 05:35:48;;;;;;;9.73;5.83;;;4.00;99.90;3.80;96702.00;;;;5048220;28;20212;-75
2021/11/13 05:38:38;;;;;;;9.10;5.47;;;4.00;99.90;3.90;96701.00;;;;5048221;28;20208;-75
2021/11/13 05:41:26;;;;;;;9.13;5.70;;;4.00;99.90;3.90;96701.00;;;;5038149;28;20221;-74
2021/11/13 05:44:21;;;;;;;7.37;5.90;;;4.00;99.90;3.80;96705.00;;;;5035765;28;20446;-74
2021/11/13 05:47:09;;;;;;;9.40;6.37;;;4.00;99.90;3.90;96713.00;;;;5045780;28;20211;-75
2021/11/13 05:49:58;;;;;;;9.77;6.33;;;4.00;99.90;3.80;96715.00;;;;5046789;28;20742;-74
2021/11/13 05:52:50;;;;;;;10.33;7.03;;;4.00;99.90;3.80;96708.00;;;;5046885;28;20207;-75
2021/11/13 05:55:40;;;;;;;9.67;6.40;;;4.00;99.90;3.80;96717.00;;;;5047287;28;20209;-74
2021/11/13 05:58:30;;;;;;;10.23;6.50;;;3.90;99.90;3.80;96725.00;;;;5045882;28;20227;-74
2021/11/13 06:01:21;;;;;;;12.43;6.73;;;3.90;99.90;3.80;96721.00;;;;5047846;28;20232;-74
2021/11/13 06:04:10;;;;;;;11.07;6.63;;;4.00;99.90;3.80;96715.00;;;;5048124;28;20208;-74
2021/11/13 06:07:09;;;;;;;10.27;6.67;;;3.90;99.90;3.90;96710.00;;;;5047079;28;20631;-75
2021/11/13 06:09:57;;;;;;;11.00;7.03;;;4.00;99.90;3.90;96717.00;;;;5041495;28;20201;-75
2021/11/13 06:12:47;;;;;;;10.30;7.23;;;4.00;99.90;3.90;96719.00;;;;5045560;28;20197;-75
2021/11/13 06:15:36;;;;;;;7.30;6.17;;;4.00;99.90;3.90;96718.00;;;;5046369;28;20679;-74
2021/11/13 06:18:26;;;;;;;10.47;7.27;;;4.00;99.90;3.90;96724.00;;;;5046911;28;20212;-75
2021/11/13 06:21:16;;;;;;;9.43;5.50;;;4.00;99.90;3.90;96719.00;;;;5045790;28;20216;-74
2021/11/13 06:24:07;;;;;;;16.23;6.17;;;4.00;99.90;3.90;96732.00;;;;5046514;28;20197;-75
2021/11/13 06:26:56;;;;;;;13.27;7.10;;;4.00;99.90;3.90;96734.00;;;;5045680;28;20667;-74
2021/11/13 06:29:46;;;;;;;11.57;7.30;;;4.00;99.90;3.80;96729.00;;;;5047002;28;20197;-75
2021/11/13 06:32:35;;;;;;;9.60;6.33;;;4.00;99.90;3.80;96736.00;;;;5042887;28;20706;-74
2021/11/13 06:35:25;;;;;;;13.93;6.93;;;4.00;99.90;3.90;96751.00;;;;5036616;28;20208;-75
2021/11/13 06:38:14;;;;;;;12.07;7.37;;;4.00;99.90;3.90;96748.00;;;;5038054;28;20208;-75
2021/11/13 06:41:03;;;;;;;12.00;6.67;;;4.00;99.90;3.90;96748.00;;;;5039839;28;20217;-75
2021/11/13 06:43:52;;;;;;;13.87;5.67;;;4.60;99.90;3.90;96756.00;;;;5045120;28;20220;-75
2021/11/13 06:46:41;;;;;;;11.00;6.27;;;4.10;99.90;4.00;96760.00;;;;5045521;28;20236;-74
2021/11/13 06:49:30;;;;;;;10.03;6.67;;;4.10;99.90;4.00;96761.00;;;;5046692;28;20213;-75
2021/11/13 06:52:20;;;;;;;10.67;6.00;;;4.10;99.90;3.90;96764.00;;;;5045388;28;20235;-75
2021/11/13 06:55:11;;;;;;;11.03;6.17;;;4.10;99.90;4.00;96762.00;;;;5045984;28;20367;-75
2021/11/13 06:58:00;;;;;;;8.63;5.73;;;4.10;99.90;4.00;96771.00;;;;5047242;28;20227;-75
2021/11/13 07:00:49;;;;;;;10.40;6.13;;;4.10;99.90;4.10;96763.00;;;;5047215;28;20224;-75
2021/11/13 07:03:37;;;;;;;8.20;6.27;;;4.10;99.90;4.10;96765.00;;;;5045861;28;20597;-75
2021/11/13 07:06:26;;;;;;;11.37;6.27;;;4.10;99.90;4.00;96766.00;;;;5044869;28;20228;-74
2021/11/13 07:09:17;;;;;;;7.37;5.10;;;4.10;99.90;4.00;96761.00;;;;5046364;28;20197;-75
2021/11/13 07:12:07;;;;;;;9.27;5.43;;;4.10;99.90;4.10;96759.00;;;;5044620;28;20220;-75
2021/11/13 07:14:56;;;;;;;6.83;5.03;;;4.20;99.90;4.30;96767.00;;;;5046085;28;20208;-75
2021/11/13 07:17:46;;;;;;;9.87;6.50;;;4.20;99.90;4.20;96768.00;;;;5036149;28;20201;-75
2021/11/13 07:20:35;;;;;;;8.30;5.63;;;4.30;99.90;4.30;96765.00;;;;5038559;28;20196;-75
2021/11/13 07:23:24;;;;;;;9.60;5.70;;;4.30;99.90;4.30;96760.00;;;;5030808;28;20205;-75
2021/11/13 07:26:15;;;;;;;7.93;5.33;;;4.30;99.90;4.20;96780.00;;;;5034957;28;20224;-75
2021/11/13 07:29:06;;;;;;;8.70;7.00;;;4.40;99.90;4.30;96768.00;;;;5033596;28;20401;-74
2021/11/13 07:31:55;;;;;;;9.40;6.67;;;4.40;99.90;4.30;96769.00;;;;5045103;28;20683;-74
2021/11/13 07:34:44;;;;;;;9.17;6.60;;;4.30;99.90;4.30;96763.00;;;;5032361;28;20617;-74
2021/11/13 07:37:33;;;;;;;8.30;5.87;;;4.40;99.90;4.50;96761.00;;;;5045703;28;20574;-74
2021/11/13 07:40:22;;;;;;;14.87;7.37;;;4.40;99.90;4.40;96765.00;;;;5035848;28;20194;-75
2021/11/13 07:43:12;;;;;;;10.90;6.97;;;4.50;99.90;4.40;96760.00;;;;5043277;28;20200;-74
2021/11/13 07:46:01;;;;;;;8.63;6.87;;;4.50;99.90;4.50;96765.00;;;;5034970;28;20637;-74
2021/11/13 07:48:50;;;;;;;8.33;6.17;;;4.50;99.90;4.50;96751.00;;;;5028607;28;20211;-74
2021/11/13 07:51:39;;;;;;;10.00;6.47;;;4.50;99.90;4.50;96764.00;;;;5035576;28;20229;-74
2021/11/13 07:54:28;;;;;;;9.27;5.90;;;4.50;99.90;4.50;96754.00;;;;5040237;28;20196;-74
2021/11/13 07:57:17;;;;;;;7.63;5.67;;;4.50;99.90;4.50;96760.00;;;;5036848;28;20618;-75
2021/11/13 08:00:12;;;;;;;12.90;6.63;;;4.50;99.90;4.40;96764.00;;;;5030592;28;20217;-76
2021/11/13 08:03:01;;;;;;;9.87;5.90;;;4.60;99.90;4.50;96754.00;;;;5038381;28;20223;-76
2021/11/13 08:05:51;;;;;;;13.23;6.57;;;4.50;99.90;4.40;96750.00;;;;5038141;28;20205;-77
2021/11/13 08:08:41;;;;;;;11.70;6.80;;;4.50;99.90;4.40;96748.00;;;;5025900;28;20216;-77
2021/11/13 08:11:30;;;;;;;11.13;6.93;;;4.60;99.90;4.30;96746.00;;;;5041197;28;20228;-77
2021/11/13 08:14:18;;;;;;;8.10;5.70;;;4.60;99.90;4.40;96750.00;;;;5039736;28;20201;-76
2021/11/13 08:17:08;;;;;;;12.03;7.27;;;4.50;99.90;4.50;96753.00;;;;5031168;28;20193;-76
2021/11/13 08:19:57;;;;;;;12.27;7.30;;;4.50;99.90;4.50;96752.00;;;;5041016;28;20600;-76
2021/11/13 08:22:46;;;;;;;11.13;6.40;;;4.50;99.90;4.50;96759.00;;;;5036416;28;20196;-75
2021/11/13 08:25:36;;;;;;;7.80;5.97;;;4.60;99.90;4.50;96745.00;;;;5043551;28;20227;-75
2021/11/13 08:28:25;;;;;;;7.33;5.63;;;4.60;99.90;4.40;96757.00;;;;5031356;28;20208;-75
2021/11/13 08:31:13;;;;;;;14.60;6.70;;;4.60;99.90;4.20;96749.00;;;;5044397;28;20307;-76
2021/11/13 08:34:04;;;;;;;12.23;6.23;;;4.50;99.90;4.30;96753.00;;;;5036073;28;20197;-78
2021/11/13 08:36:53;;;;;;;12.60;7.07;;;4.50;99.90;4.30;96766.00;;;;5037667;28;20667;-77
2021/11/13 08:39:42;;;;;;;11.80;7.50;;;4.50;99.90;4.40;96753.00;;;;5043143;28;20204;-77
2021/11/13 08:42:30;;;;;;;15.37;6.70;;;4.50;99.90;4.50;96763.00;;;;5030245;28;20839;-77
2021/11/13 08:45:20;;;;;;;11.57;7.30;;;4.50;99.90;4.60;96771.00;;;;5040726;28;20707;-76
2021/11/13 08:48:10;;;;;;;10.90;6.50;;;4.60;99.90;4.70;96760.00;;;;5033988;28;20229;-76
2021/11/13 08:51:00;;;;;;;7.80;5.97;;;4.60;99.90;4.80;96766.00;;;;5044258;28;20239;-77
2021/11/13 08:53:54;;;;;;;12.27;7.10;;;4.70;99.90;4.90;96779.00;;;;5036264;28;20208;-77
2021/11/13 08:56:43;;;;;;;11.80;6.37;;;4.80;99.90;4.90;96778.00;;;;5042923;28;20209;-77
2021/11/13 08:59:33;;;;;;;9.97;6.13;;;4.80;99.90;4.90;96791.00;;;;5027085;28;20215;-77
2021/11/13 09:02:27;;;;;;;10.97;6.50;;;4.90;99.90;4.80;96781.00;;;;5035914;28;20225;-77
2021/11/13 09:05:16;;;;;;;8.53;5.40;;;4.90;99.90;4.90;96789.00;;;;5046431;28;20196;-77
2021/11/13 09:08:09;;;;;;;11.00;6.60;;;4.90;99.90;4.90;96783.00;;;;5043905;28;20221;-77
2021/11/13 09:10:58;;;;;;;9.87;6.60;;;4.90;99.90;4.90;96776.00;;;;5044023;28;20225;-76
2021/11/13 09:13:49;;;;;;;9.67;6.23;;;4.90;99.90;4.80;96781.00;;;;5037704;28;20197;-77
2021/11/13 09:16:38;;;;;;;11.73;6.67;;;4.90;99.90;4.90;96780.00;;;;5047042;28;20200;-77
2021/11/13 09:19:27;;;;;;;13.07;5.97;;;4.90;99.90;4.90;96778.00;;;;5046126;28;20201;-75
2021/11/13 09:22:18;;;;;;;12.27;6.93;;;4.90;99.90;5.00;96783.00;;;;5047720;28;20228;-76
2021/11/13 09:25:09;;;;;;;13.53;6.93;;;5.00;99.90;5.00;96781.00;;;;5044908;28;20204;-76
2021/11/13 09:27:59;;;;;;;14.60;7.27;;;5.00;99.90;5.00;96778.00;;;;5047689;28;20235;-76
2021/11/13 09:30:48;;;;;;;13.60;7.77;;;5.00;99.90;5.00;96766.00;;;;5041949;28;20220;-76
2021/11/13 09:33:37;;;;;;;14.93;7.57;;;5.00;99.90;5.00;96773.00;;;;5038731;28;20200;-75
2021/11/13 09:36:26;;;;;;;9.73;6.53;;;5.00;99.90;5.00;96775.00;;;;5040830;28;20513;-76
2021/11/13 09:39:16;;;;;;;19.37;8.20;;;5.00;99.90;4.90;96772.00;;;;5040926;28;20205;-74
2021/11/13 09:42:07;;;;;;;18.77;8.47;;;5.00;99.90;5.00;96775.00;;;;5038376;28;20511;-75
2021/11/13 09:44:56;;;;;;;11.87;8.20;;;5.00;99.90;5.10;96776.00;;;;5042210;28;20216;-76
2021/11/13 09:47:48;;;;;;;12.77;8.30;;;5.00;99.90;5.10;96781.00;;;;5034659;28;20220;-76
2021/11/13 09:50:40;;;;;;;14.00;8.67;;;5.10;99.90;5.20;96783.00;;;;5047527;28;20219;-76
2021/11/13 09:53:29;;;;;;;17.90;8.17;;;5.20;99.90;5.20;96780.00;;;;5042700;28;20189;-76
2021/11/13 09:56:18;;;;;;;20.33;10.07;;;5.20;99.90;5.30;96772.00;;;;5047908;28;20589;-75
2021/11/13 09:59:08;;;;;;;16.70;10.43;;;5.20;99.90;5.30;96772.00;;;;5044831;28;20200;-76
2021/11/13 10:01:57;;;;;;;14.50;9.20;;;5.30;99.90;5.40;96775.00;;;;5047390;28;20592;-77
2021/11/13 10:04:46;;;;;;;16.97;9.10;;;5.30;99.90;5.40;96767.00;;;;5046646;28;20204;-76
2021/11/13 10:07:36;;;;;;;17.20;9.27;;;5.30;99.90;5.40;96774.00;;;;5039049;28;20240;-76
2021/11/13 10:10:31;;;;;;;11.70;7.33;;;5.40;99.90;5.30;96775.00;;;;5038584;28;20201;-77
2021/11/13 10:13:32;;;;;;;16.07;9.03;;;5.40;99.90;5.40;96764.00;;;;5050603;28;20216;-76
2021/11/13 10:16:31;;;;;;;16.90;8.80;;;5.40;99.90;5.40;96758.00;;;;5046572;28;20684;-75
2021/11/13 10:19:20;;;;;;;14.83;7.70;;;5.40;99.90;5.40;96763.00;;;;5048391;28;20676;-76
2021/11/13 10:22:09;;;;;;;16.63;9.73;;;5.40;99.90;5.40;96758.00;;;;5037764;28;20228;-75
2021/11/13 10:24:58;;;;;;;19.23;8.60;;;5.40;99.90;5.50;96769.00;;;;5047567;28;20197;-75
2021/11/13 10:28:09;;;;;;;23.77;10.30;;;5.40;99.90;5.40;96760.00;;;;5040818;28;20239;-75
2021/11/13 10:31:11;;;;;;;22.40;9.80;;;5.40;99.90;5.40;96756.00;;;;5041648;28;20232;-75
2021/11/13 10:34:07;;;;;;;17.30;9.13;;;5.40;99.90;5.50;96759.00;;;;5038827;28;20578;-75
2021/11/13 10:36:58;;;;;;;18.60;8.57;;;5.50;99.90;5.60;96757.00;;;;5042820;28;20304;-75
2021/11/13 10:39:49;;;;;;;19.17;8.90;;;5.50;99.90;5.60;96765.00;;;;5047849;28;20210;-75
2021/11/13 10:42:38;;;;;;;18.33;8.63;;;5.60;99.90;5.60;96760.00;;;;5032304;28;20236;-75
2021/11/13 10:45:28;;;;;;;23.67;10.17;;;5.50;99.90;5.50;96752.00;;;;5042525;28;20193;-76
2021/11/13 10:48:24;;;;;;;22.37;10.20;;;5.50;99.90;5.70;96759.00;;;;5046810;28;20592;-75
2021/11/13 10:51:18;;;;;;;22.77;9.73;;;5.60;99.90;5.70;96747.00;;;;5046507;28;20227;-76
2021/11/13 10:54:12;;;;;;;21.37;9.73;;;5.60;99.90;5.80;96748.00;;;;5035572;28;20196;-76
2021/11/13 10:57:05;;;;;;;21.60;12.93;;;5.70;99.90;6.00;96753.00;;;;5044395;28;20216;-75
2021/11/13 10:59:55;;;;;;;28.37;10.53;;;5.70;99.90;5.90;96747.00;;;;5041335;28;20208;-75
2021/11/13 11:02:46;;;;;;;18.43;9.03;;;5.80;99.90;6.00;96744.00;;;;5043000;28;20758;-76
2021/11/13 11:05:46;;;;;;;21.07;8.93;;;5.80;99.90;6.00;96744.00;;;;5037333;28;20540;-76
2021/11/13 11:08:38;;;;;;;17.73;8.17;;;5.90;99.90;6.10;96746.00;;;;5031803;28;20217;-76
2021/11/13 11:11:35;;;;;;;21.60;9.67;;;5.90;99.90;6.10;96739.00;;;;5034554;28;20626;-77
2021/11/13 11:14:27;;;;;;;17.50;8.57;;;6.00;99.90;6.30;96742.00;;;;5034904;28;20201;-76
2021/11/13 11:17:19;;;;;;;16.87;9.00;;;6.00;99.90;6.30;96744.00;;;;5038025;28;21141;-77
2021/11/13 11:20:11;;;;;;;16.73;8.53;;;6.10;99.90;6.30;96742.00;;;;5034915;28;20238;-76
2021/11/13 11:22:59;;;;;;;15.30;8.67;;;6.10;99.90;6.30;96735.00;;;;5045795;28;20205;-77
2021/11/13 11:25:50;;;;;;;20.03;8.40;;;6.20;99.90;6.30;96730.00;;;;5032387;28;20203;-76
2021/11/13 11:29:00;;;;;;;18.97;9.93;;;6.20;99.90;6.30;96727.00;;;;5040539;28;20248;-76
2021/11/13 11:31:55;;;;;;;13.53;8.43;;;6.30;99.90;6.30;96728.00;;;;5021888;28;20221;-76
2021/11/13 11:34:46;;;;;;;16.43;9.27;;;6.20;99.90;6.30;96721.00;;;;5023363;28;20679;-75
2021/11/13 11:37:37;;;;;;;13.67;8.17;;;6.20;99.90;6.40;96720.00;;;;5043927;28;20231;-75
2021/11/13 11:40:29;;;;;;;17.30;8.57;;;6.30;99.90;6.40;96732.00;;;;5040391;28;20299;-76
2021/11/13 11:43:19;;;;;;;14.43;9.17;;;6.30;99.90;6.40;96728.00;;;;5033287;28;20201;-75
2021/11/13 11:46:08;;;;;;;12.70;8.40;;;6.30;99.90;6.40;96736.00;;;;5035029;28;20204;-75
2021/11/13 11:48:59;;;;;;;15.37;7.83;;;6.30;99.90;6.30;96724.00;;;;5037052;28;20624;-75
2021/11/13 11:51:48;;;;;;;15.40;7.97;;;6.30;99.90;6.30;96726.00;;;;5045881;28;20769;-76
2021/11/13 11:54:37;;;;;;;17.07;9.00;;;6.30;99.90;6.40;96730.00;;;;5044426;28;20491;-77
2021/11/13 11:57:32;;;;;;;18.03;7.63;;;6.30;99.90;6.40;96723.00;;;;5043552;28;20270;-74
2021/11/13 12:00:26;;;;;;;18.37;9.13;;;6.30;99.90;6.50;96735.00;;;;5043925;28;20594;-76
2021/11/13 12:03:23;;;;;;;18.63;8.50;;;6.30;99.90;6.50;96732.00;;;;5044816;28;20211;-75
2021/11/13 12:06:12;;;;;;;22.37;8.97;;;6.40;99.90;6.60;96731.00;;;;5044424;28;20806;-77
2021/11/13 12:09:05;;;;;;;19.20;8.37;;;6.40;99.90;6.50;96733.00;;;;5045797;28;20228;-76
2021/11/13 12:12:14;;;;;;;13.40;7.83;;;6.40;99.90;6.50;96721.00;;;;5044067;28;20925;-77
2021/11/13 12:15:19;;;;;;;14.87;8.33;;;6.40;99.90;6.40;96717.00;;;;5046277;28;20378;-77
2021/11/13 12:18:20;;;;;;;19.93;8.70;;;6.40;99.90;6.40;96713.00;;;;5044532;28;20201;-77
2021/11/13 12:21:12;;;;;;;14.03;8.80;;;6.40;99.90;6.60;96719.00;;;;5028129;28;20227;-76
2021/11/13 12:24:07;;;;;;;13.73;7.63;;;6.40;99.90;6.70;96719.00;;;;5034590;28;20201;-76
2021/11/13 12:27:01;;;;;;;17.93;9.47;;;6.50;99.90;6.70;96709.00;;;;5022374;28;20205;-76
2021/11/13 12:29:55;;;;;;;14.17;8.77;;;6.50;99.90;6.80;96710.00;;;;5036795;28;20629;-76
2021/11/13 12:32:44;;;;;;;16.07;9.67;;;6.60;99.90;6.80;96706.00;;;;5024689;28;20212;-77
2021/11/13 12:35:53;;;;;;;18.33;9.87;;;6.60;99.90;6.70;96704.00;;;;5024518;28;20201;-77
2021/11/13 12:39:07;;;;;;;15.30;9.60;;;6.60;99.90;6.70;96705.00;;;;5017806;28;20220;-75
2021/11/13 12:42:02;;;;;;;20.33;8.80;;;6.60;99.90;6.70;96705.00;;;;5033495;28;20641;-75
2021/11/13 12:44:59;;;;;;;14.97;9.50;;;6.60;99.90;6.60;96701.00;;;;5032309;28;20233;-75
2021/11/13 12:47:48;;;;;;;17.40;8.20;;;6.60;99.90;6.50;96701.00;;;;5036369;28;20201;-76
2021/11/13 12:50:37;;;;;;;19.60;10.13;;;6.60;99.90;6.40;96698.00;;;;5038366;28;20205;-75